sensor_id;sensor_type;location;lat;lon;timestamp;pressure;altitude;pressure_sealevel;temperature;humidity
50302;BME280;36550;50.472;19.744;2023-07-13T00:01:41;97773.37;;;20.83;78.67
50302;BME280;36550;50.472;19.744;2023-07-13T00:04:25;97780.65;;;20.83;78.71
50302;BME280;36550;50.472;19.744;2023-07-13T00:07:09;97777.73;;;20.81;78.83
50302;BME280;36550;50.472;19.744;2023-07-13T00:09:54;97780.38;;;20.79;78.88
50302;BME280;36550;50.472;19.744;2023-07-13T00:12:38;97785.23;;;20.77;79.36
50302;BME280;36550;50.472;19.744;2023-07-13T00:15:24;97784.59;;;20.73;79.67
50302;BME280;36550;50.472;19.744;2023-07-13T00:18:08;97767.97;;;20.69;79.85
50302;BME280;36550;50.472;19.744;2023-07-13T00:20:52;97750.34;;;20.69;79.95
50302;BME280;36550;50.472;19.744;2023-07-13T00:23:39;97746.27;;;20.70;80.15
50302;BME280;36550;50.472;19.744;2023-07-13T00:26:24;97744.64;;;20.71;80.20
50302;BME280;36550;50.472;19.744;2023-07-13T00:29:08;97754.55;;;20.72;80.38
50302;BME280;36550;50.472;19.744;2023-07-13T00:31:52;97755.69;;;20.74;80.45
50302;BME280;36550;50.472;19.744;2023-07-13T00:34:38;97748.13;;;20.73;80.49
50302;BME280;36550;50.472;19.744;2023-07-13T00:37:22;97750.00;;;20.71;80.33
50302;BME280;36550;50.472;19.744;2023-07-13T00:40:07;97751.17;;;20.72;80.55
50302;BME280;36550;50.472;19.744;2023-07-13T00:42:52;97756.67;;;20.71;80.78
50302;BME280;36550;50.472;19.744;2023-07-13T00:48:31;97785.80;;;20.71;81.09
50302;BME280;36550;50.472;19.744;2023-07-13T00:51:23;97792.51;;;20.71;81.23
50302;BME280;36550;50.472;19.744;2023-07-13T00:54:11;97792.61;;;20.70;81.23
50302;BME280;36550;50.472;19.744;2023-07-13T00:57:00;97784.02;;;20.67;81.38
50302;BME280;36550;50.472;19.744;2023-07-13T00:59:48;97785.36;;;20.65;81.67
50302;BME280;36550;50.472;19.744;2023-07-13T01:02:33;97774.29;;;20.62;81.94
50302;BME280;36550;50.472;19.744;2023-07-13T01:05:20;97761.42;;;20.57;82.07
50302;BME280;36550;50.472;19.744;2023-07-13T01:08:05;97753.50;;;20.56;82.27
50302;BME280;36550;50.472;19.744;2023-07-13T01:10:56;97759.91;;;20.53;82.62
50302;BME280;36550;50.472;19.744;2023-07-13T01:13:42;97777.39;;;20.48;82.55
50302;BME280;36550;50.472;19.744;2023-07-13T01:16:28;97778.64;;;20.44;83.01
50302;BME280;36550;50.472;19.744;2023-07-13T01:19:43;97777.46;;;20.40;83.26
50302;BME280;36550;50.472;19.744;2023-07-13T01:22:27;97759.95;;;20.37;83.32
50302;BME280;36550;50.472;19.744;2023-07-13T01:25:12;97743.23;;;20.36;83.43
50302;BME280;36550;50.472;19.744;2023-07-13T01:27:56;97741.73;;;20.36;83.51
50302;BME280;36550;50.472;19.744;2023-07-13T01:30:40;97738.87;;;20.36;83.55
50302;BME280;36550;50.472;19.744;2023-07-13T01:33:25;97740.63;;;20.36;83.53
50302;BME280;36550;50.472;19.744;2023-07-13T01:36:11;97741.53;;;20.34;83.55
50302;BME280;36550;50.472;19.744;2023-07-13T01:38:55;97738.45;;;20.32;83.70
50302;BME280;36550;50.472;19.744;2023-07-13T01:41:39;97738.38;;;20.26;83.89
50302;BME280;36550;50.472;19.744;2023-07-13T01:44:23;97738.51;;;20.18;84.11
50302;BME280;36550;50.472;19.744;2023-07-13T01:47:07;97735.13;;;20.12;84.37
50302;BME280;36550;50.472;19.744;2023-07-13T01:49:52;97732.27;;;20.09;84.21
50302;BME280;36550;50.472;19.744;2023-07-13T01:52:36;97728.01;;;20.09;84.06
50302;BME280;36550;50.472;19.744;2023-07-13T01:55:21;97723.84;;;20.09;84.10
50302;BME280;36550;50.472;19.744;2023-07-13T01:58:06;97720.81;;;20.09;84.08
50302;BME280;36550;50.472;19.744;2023-07-13T02:00:51;97722.61;;;20.12;84.06
50302;BME280;36550;50.472;19.744;2023-07-13T02:03:35;97719.60;;;20.13;84.00
50302;BME280;36550;50.472;19.744;2023-07-13T02:06:19;97716.20;;;20.13;84.08
50302;BME280;36550;50.472;19.744;2023-07-13T02:09:03;97706.10;;;20.12;83.89
50302;BME280;36550;50.472;19.744;2023-07-13T02:11:47;97695.08;;;20.09;83.75
50302;BME280;36550;50.472;19.744;2023-07-13T02:14:32;97686.04;;;20.07;83.79
50302;BME280;36550;50.472;19.744;2023-07-13T02:17:16;97676.98;;;20.05;83.75
50302;BME280;36550;50.472;19.744;2023-07-13T02:20:00;97676.55;;;20.04;83.80
50302;BME280;36550;50.472;19.744;2023-07-13T02:22:44;97677.40;;;20.05;83.74
50302;BME280;36550;50.472;19.744;2023-07-13T02:25:29;97681.20;;;20.06;84.04
50302;BME280;36550;50.472;19.744;2023-07-13T02:28:13;97682.35;;;20.07;84.09
50302;BME280;36550;50.472;19.744;2023-07-13T02:31:10;97679.08;;;20.06;83.97
50302;BME280;36550;50.472;19.744;2023-07-13T02:33:55;97681.79;;;20.04;84.00
50302;BME280;36550;50.472;19.744;2023-07-13T02:36:39;97692.83;;;20.01;84.10
50302;BME280;36550;50.472;19.744;2023-07-13T02:39:23;97704.79;;;20.00;84.18
50302;BME280;36550;50.472;19.744;2023-07-13T02:42:07;97705.30;;;19.99;84.26
50302;BME280;36550;50.472;19.744;2023-07-13T02:44:51;97706.06;;;19.98;84.32
50302;BME280;36550;50.472;19.744;2023-07-13T02:47:36;97709.42;;;19.98;84.22
50302;BME280;36550;50.472;19.744;2023-07-13T02:50:20;97703.94;;;19.99;84.56
50302;BME280;36550;50.472;19.744;2023-07-13T02:53:04;97700.73;;;20.00;84.57
50302;BME280;36550;50.472;19.744;2023-07-13T02:55:49;97702.09;;;20.01;84.61
50302;BME280;36550;50.472;19.744;2023-07-13T02:58:33;97689.52;;;20.02;84.46
50302;BME280;36550;50.472;19.744;2023-07-13T03:01:19;97686.52;;;20.02;84.61
50302;BME280;36550;50.472;19.744;2023-07-13T03:04:04;97691.73;;;20.05;84.66
50302;BME280;36550;50.472;19.744;2023-07-13T03:06:48;97685.88;;;20.06;84.64
50302;BME280;36550;50.472;19.744;2023-07-13T03:09:34;97686.21;;;20.06;84.68
50302;BME280;36550;50.472;19.744;2023-07-13T03:12:18;97689.88;;;20.04;84.49
50302;BME280;36550;50.472;19.744;2023-07-13T03:15:02;97688.22;;;20.00;84.40
50302;BME280;36550;50.472;19.744;2023-07-13T03:17:47;97687.13;;;19.96;84.23
50302;BME280;36550;50.472;19.744;2023-07-13T03:20:33;97682.08;;;19.96;84.30
50302;BME280;36550;50.472;19.744;2023-07-13T03:23:19;97683.55;;;19.96;84.44
50302;BME280;36550;50.472;19.744;2023-07-13T03:26:09;97680.40;;;19.97;84.66
50302;BME280;36550;50.472;19.744;2023-07-13T03:28:53;97682.48;;;19.99;84.54
50302;BME280;36550;50.472;19.744;2023-07-13T03:31:38;97695.39;;;20.00;84.49
50302;BME280;36550;50.472;19.744;2023-07-13T03:34:22;97698.41;;;20.02;84.64
50302;BME280;36550;50.472;19.744;2023-07-13T03:37:06;97694.84;;;20.02;84.45
50302;BME280;36550;50.472;19.744;2023-07-13T03:39:50;97697.73;;;20.00;84.45
50302;BME280;36550;50.472;19.744;2023-07-13T03:42:35;97714.59;;;19.98;84.45
50302;BME280;36550;50.472;19.744;2023-07-13T03:45:19;97735.95;;;19.97;84.30
50302;BME280;36550;50.472;19.744;2023-07-13T03:48:04;97754.27;;;19.95;84.21
50302;BME280;36550;50.472;19.744;2023-07-13T03:50:48;97752.52;;;19.94;84.31
50302;BME280;36550;50.472;19.744;2023-07-13T03:53:40;97752.70;;;19.94;84.44
50302;BME280;36550;50.472;19.744;2023-07-13T03:56:25;97754.48;;;19.95;84.49
50302;BME280;36550;50.472;19.744;2023-07-13T03:59:09;97757.63;;;19.93;84.34
50302;BME280;36550;50.472;19.744;2023-07-13T04:01:53;97752.35;;;19.89;84.42
50302;BME280;36550;50.472;19.744;2023-07-13T04:04:37;97748.23;;;19.89;84.65
50302;BME280;36550;50.472;19.744;2023-07-13T04:07:24;97756.48;;;19.94;84.92
50302;BME280;36550;50.472;19.744;2023-07-13T04:10:09;97760.33;;;20.01;85.07
50302;BME280;36550;50.472;19.744;2023-07-13T04:12:53;97751.41;;;20.07;85.24
50302;BME280;36550;50.472;19.744;2023-07-13T04:28:08;97785.27;;;20.75;86.81
50302;BME280;36550;50.472;19.744;2023-07-13T04:30:53;97803.29;;;20.94;86.33
50302;BME280;36550;50.472;19.744;2023-07-13T04:33:37;97808.78;;;21.00;86.17
50302;BME280;36550;50.472;19.744;2023-07-13T04:36:21;97808.64;;;21.05;85.86
50302;BME280;36550;50.472;19.744;2023-07-13T04:39:05;97807.83;;;21.12;85.91
50302;BME280;36550;50.472;19.744;2023-07-13T04:41:50;97811.62;;;21.18;85.83
50302;BME280;36550;50.472;19.744;2023-07-13T04:44:35;97818.29;;;21.24;85.81
50302;BME280;36550;50.472;19.744;2023-07-13T04:47:19;97822.64;;;21.29;85.60
50302;BME280;36550;50.472;19.744;2023-07-13T04:50:04;97822.50;;;21.30;85.34
50302;BME280;36550;50.472;19.744;2023-07-13T04:52:49;97821.89;;;21.31;85.28
50302;BME280;36550;50.472;19.744;2023-07-13T04:55:33;97813.48;;;21.33;85.26
50302;BME280;36550;50.472;19.744;2023-07-13T04:58:18;97808.35;;;21.38;85.19
50302;BME280;36550;50.472;19.744;2023-07-13T05:01:03;97803.78;;;21.43;84.96
50302;BME280;36550;50.472;19.744;2023-07-13T05:03:48;97802.10;;;21.44;84.57
50302;BME280;36550;50.472;19.744;2023-07-13T05:06:32;97799.98;;;21.43;84.36
50302;BME280;36550;50.472;19.744;2023-07-13T05:09:16;97785.83;;;21.44;84.24
50302;BME280;36550;50.472;19.744;2023-07-13T05:12:00;97775.98;;;21.48;84.44
50302;BME280;36550;50.472;19.744;2023-07-13T05:14:44;97766.33;;;21.58;84.59
50302;BME280;36550;50.472;19.744;2023-07-13T05:17:28;97765.14;;;21.68;84.52
50302;BME280;36550;50.472;19.744;2023-07-13T05:20:12;97766.10;;;21.76;84.30
50302;BME280;36550;50.472;19.744;2023-07-13T05:22:56;97765.22;;;21.84;83.97
50302;BME280;36550;50.472;19.744;2023-07-13T05:25:40;97768.17;;;21.92;83.68
50302;BME280;36550;50.472;19.744;2023-07-13T05:28:26;97766.60;;;22.00;83.58
50302;BME280;36550;50.472;19.744;2023-07-13T05:31:10;97773.02;;;22.05;83.36
50302;BME280;36550;50.472;19.744;2023-07-13T05:33:54;97771.54;;;22.08;83.06
50302;BME280;36550;50.472;19.744;2023-07-13T05:36:40;97770.88;;;22.10;82.73
50302;BME280;36550;50.472;19.744;2023-07-13T05:39:24;97769.27;;;22.17;82.66
50302;BME280;36550;50.472;19.744;2023-07-13T05:42:10;97769.30;;;22.25;82.32
50302;BME280;36550;50.472;19.744;2023-07-13T05:44:54;97770.40;;;22.36;82.40
50302;BME280;36550;50.472;19.744;2023-07-13T05:47:39;97773.79;;;22.52;82.27
50302;BME280;36550;50.472;19.744;2023-07-13T05:50:23;97766.34;;;22.73;82.37
50302;BME280;36550;50.472;19.744;2023-07-13T05:53:07;97766.23;;;23.00;82.05
50302;BME280;36550;50.472;19.744;2023-07-13T05:55:54;97765.67;;;23.27;81.36
50302;BME280;36550;50.472;19.744;2023-07-13T05:58:38;97762.29;;;23.51;80.52
50302;BME280;36550;50.472;19.744;2023-07-13T06:01:23;97760.31;;;23.66;79.77
50302;BME280;36550;50.472;19.744;2023-07-13T06:04:07;97757.11;;;23.74;79.37
50302;BME280;36550;50.472;19.744;2023-07-13T06:06:51;97761.56;;;23.80;78.73
50302;BME280;36550;50.472;19.744;2023-07-13T06:09:35;97758.52;;;23.83;77.88
50302;BME280;36550;50.472;19.744;2023-07-13T06:12:19;97758.96;;;23.87;77.58
50302;BME280;36550;50.472;19.744;2023-07-13T06:15:03;97756.77;;;23.92;77.39
50302;BME280;36550;50.472;19.744;2023-07-13T06:17:47;97758.93;;;23.94;76.73
50302;BME280;36550;50.472;19.744;2023-07-13T06:20:33;97756.70;;;23.99;76.30
50302;BME280;36550;50.472;19.744;2023-07-13T06:23:18;97758.46;;;24.05;75.85
50302;BME280;36550;50.472;19.744;2023-07-13T06:26:02;97753.23;;;24.11;75.51
50302;BME280;36550;50.472;19.744;2023-07-13T06:28:47;97754.54;;;24.16;75.16
50302;BME280;36550;50.472;19.744;2023-07-13T06:31:31;97749.09;;;24.22;75.08
50302;BME280;36550;50.472;19.744;2023-07-13T06:34:15;97750.08;;;24.28;74.76
50302;BME280;36550;50.472;19.744;2023-07-13T06:36:59;97754.55;;;24.31;74.37
50302;BME280;36550;50.472;19.744;2023-07-13T06:39:43;97754.30;;;24.33;73.86
50302;BME280;36550;50.472;19.744;2023-07-13T06:42:27;97752.33;;;24.32;73.35
50302;BME280;36550;50.472;19.744;2023-07-13T06:45:11;97753.61;;;24.31;73.11
50302;BME280;36550;50.472;19.744;2023-07-13T06:47:55;97753.43;;;24.30;72.78
50302;BME280;36550;50.472;19.744;2023-07-13T06:50:41;97752.95;;;24.28;72.38
50302;BME280;36550;50.472;19.744;2023-07-13T06:53:25;97750.23;;;24.24;71.89
50302;BME280;36550;50.472;19.744;2023-07-13T06:56:10;97755.64;;;24.23;71.71
50302;BME280;36550;50.472;19.744;2023-07-13T06:58:55;97757.97;;;24.21;71.34
50302;BME280;36550;50.472;19.744;2023-07-13T07:01:39;97760.14;;;24.22;71.08
50302;BME280;36550;50.472;19.744;2023-07-13T07:04:23;97758.27;;;24.22;70.56
50302;BME280;36550;50.472;19.744;2023-07-13T07:07:06;97757.96;;;24.22;70.33
50302;BME280;36550;50.472;19.744;2023-07-13T07:09:50;97757.84;;;24.25;70.44
50302;BME280;36550;50.472;19.744;2023-07-13T07:12:34;97760.06;;;24.29;70.43
50302;BME280;36550;50.472;19.744;2023-07-13T07:15:19;97756.75;;;24.35;70.45
50302;BME280;36550;50.472;19.744;2023-07-13T07:18:03;97757.35;;;24.42;70.40
50302;BME280;36550;50.472;19.744;2023-07-13T07:20:49;97756.68;;;24.49;70.36
50302;BME280;36550;50.472;19.744;2023-07-13T07:23:32;97758.36;;;24.57;70.43
50302;BME280;36550;50.472;19.744;2023-07-13T07:26:16;97762.08;;;24.66;70.29
50302;BME280;36550;50.472;19.744;2023-07-13T07:29:01;97767.67;;;24.73;70.25
50302;BME280;36550;50.472;19.744;2023-07-13T07:31:44;97769.04;;;24.79;69.99
50302;BME280;36550;50.472;19.744;2023-07-13T07:34:30;97770.36;;;24.85;69.85
50302;BME280;36550;50.472;19.744;2023-07-13T07:37:14;97765.83;;;24.89;69.82
50302;BME280;36550;50.472;19.744;2023-07-13T07:39:59;97763.43;;;24.91;69.59
50302;BME280;36550;50.472;19.744;2023-07-13T07:42:43;97760.66;;;24.91;69.41
50302;BME280;36550;50.472;19.744;2023-07-13T07:45:27;97757.74;;;24.91;69.36
50302;BME280;36550;50.472;19.744;2023-07-13T07:48:11;97759.00;;;24.94;69.44
50302;BME280;36550;50.472;19.744;2023-07-13T07:50:55;97760.08;;;24.96;69.37
50302;BME280;36550;50.472;19.744;2023-07-13T07:53:39;97766.34;;;24.95;69.15
50302;BME280;36550;50.472;19.744;2023-07-13T07:56:23;97766.95;;;24.95;69.20
50302;BME280;36550;50.472;19.744;2023-07-13T07:59:08;97763.70;;;24.97;69.25
50302;BME280;36550;50.472;19.744;2023-07-13T08:01:52;97764.08;;;24.99;69.16
50302;BME280;36550;50.472;19.744;2023-07-13T08:04:36;97760.95;;;25.02;69.24
50302;BME280;36550;50.472;19.744;2023-07-13T08:07:20;97757.44;;;25.00;68.57
50302;BME280;36550;50.472;19.744;2023-07-13T08:10:08;97757.44;;;24.98;68.65
50302;BME280;36550;50.472;19.744;2023-07-13T08:12:52;97755.43;;;25.02;68.85
50302;BME280;36550;50.472;19.744;2023-07-13T08:15:36;97756.08;;;25.08;68.92
50302;BME280;36550;50.472;19.744;2023-07-13T08:18:20;97751.48;;;25.13;68.90
50302;BME280;36550;50.472;19.744;2023-07-13T08:21:05;97745.23;;;25.22;68.97
50302;BME280;36550;50.472;19.744;2023-07-13T08:23:49;97740.49;;;25.27;68.70
50302;BME280;36550;50.472;19.744;2023-07-13T08:26:34;97734.83;;;25.32;68.79
50302;BME280;36550;50.472;19.744;2023-07-13T08:29:20;97735.02;;;25.37;68.64
50302;BME280;36550;50.472;19.744;2023-07-13T08:32:06;97733.77;;;25.42;68.47
50302;BME280;36550;50.472;19.744;2023-07-13T08:34:53;97731.42;;;25.47;68.43
50302;BME280;36550;50.472;19.744;2023-07-13T08:37:37;97729.98;;;25.54;68.34
50302;BME280;36550;50.472;19.744;2023-07-13T08:40:24;97730.27;;;25.63;68.40
50302;BME280;36550;50.472;19.744;2023-07-13T08:43:16;97731.19;;;25.74;68.52
50302;BME280;36550;50.472;19.744;2023-07-13T08:46:09;97734.32;;;25.84;68.35
50302;BME280;36550;50.472;19.744;2023-07-13T08:48:58;97734.66;;;25.91;68.06
50302;BME280;36550;50.472;19.744;2023-07-13T08:52:33;97738.05;;;25.96;67.90
50302;BME280;36550;50.472;19.744;2023-07-13T08:55:19;97737.25;;;26.04;67.62
50302;BME280;36550;50.472;19.744;2023-07-13T08:58:11;97736.33;;;26.09;67.41
50302;BME280;36550;50.472;19.744;2023-07-13T09:01:02;97738.83;;;26.13;67.30
50302;BME280;36550;50.472;19.744;2023-07-13T09:07:01;97739.33;;;26.13;66.56
50302;BME280;36550;50.472;19.744;2023-07-13T09:15:45;97747.11;;;26.05;66.18
50302;BME280;36550;50.472;19.744;2023-07-13T09:18:38;97741.82;;;25.99;65.92
50302;BME280;36550;50.472;19.744;2023-07-13T09:21:26;97741.75;;;25.94;65.81
50302;BME280;36550;50.472;19.744;2023-07-13T09:24:33;97745.30;;;25.87;65.77
50302;BME280;36550;50.472;19.744;2023-07-13T09:27:25;97743.40;;;25.80;65.83
50302;BME280;36550;50.472;19.744;2023-07-13T09:30:23;97741.77;;;25.77;65.93
50302;BME280;36550;50.472;19.744;2023-07-13T09:33:09;97746.31;;;25.77;66.06
50302;BME280;36550;50.472;19.744;2023-07-13T09:35:53;97746.16;;;25.74;66.04
50302;BME280;36550;50.472;19.744;2023-07-13T09:38:37;97747.18;;;25.72;65.94
50302;BME280;36550;50.472;19.744;2023-07-13T09:41:31;97747.31;;;25.66;65.66
50302;BME280;36550;50.472;19.744;2023-07-13T09:44:32;97748.52;;;25.60;65.73
50302;BME280;36550;50.472;19.744;2023-07-13T09:47:29;97746.10;;;25.59;65.89
50302;BME280;36550;50.472;19.744;2023-07-13T09:50:16;97748.13;;;25.52;65.67
50302;BME280;36550;50.472;19.744;2023-07-13T09:53:01;97741.34;;;25.43;65.64
50302;BME280;36550;50.472;19.744;2023-07-13T09:55:47;97743.52;;;25.36;65.38
50302;BME280;36550;50.472;19.744;2023-07-13T09:58:34;97742.30;;;25.24;64.93
50302;BME280;36550;50.472;19.744;2023-07-13T10:01:38;97744.98;;;25.09;64.82
50302;BME280;36550;50.472;19.744;2023-07-13T10:04:31;97749.00;;;24.90;64.47
50302;BME280;36550;50.472;19.744;2023-07-13T10:07:15;97761.02;;;24.73;64.32
50302;BME280;36550;50.472;19.744;2023-07-13T10:10:14;97764.16;;;24.53;63.86
50302;BME280;36550;50.472;19.744;2023-07-13T10:12:58;97761.77;;;24.32;64.10
50302;BME280;36550;50.472;19.744;2023-07-13T10:15:43;97763.93;;;24.17;64.09
50302;BME280;36550;50.472;19.744;2023-07-13T10:18:28;97765.20;;;24.02;64.49
50302;BME280;36550;50.472;19.744;2023-07-13T10:21:16;97768.05;;;23.90;64.42
50302;BME280;36550;50.472;19.744;2023-07-13T10:24:24;97774.05;;;23.75;64.66
50302;BME280;36550;50.472;19.744;2023-07-13T10:27:17;97787.16;;;23.57;65.76
50302;BME280;36550;50.472;19.744;2023-07-13T10:33:02;97786.14;;;23.14;67.45
50302;BME280;36550;50.472;19.744;2023-07-13T10:35:48;97784.11;;;22.95;68.08
50302;BME280;36550;50.472;19.744;2023-07-13T10:38:35;97796.66;;;22.80;68.65
50302;BME280;36550;50.472;19.744;2023-07-13T10:41:22;97803.92;;;22.67;69.61
50302;BME280;36550;50.472;19.744;2023-07-13T10:44:17;97817.58;;;22.48;70.18
50302;BME280;36550;50.472;19.744;2023-07-13T10:47:07;97834.52;;;22.20;71.20
50302;BME280;36550;50.472;19.744;2023-07-13T10:49:54;97845.27;;;21.82;72.01
50302;BME280;36550;50.472;19.744;2023-07-13T10:52:46;97858.61;;;21.38;71.88
50302;BME280;36550;50.472;19.744;2023-07-13T10:55:40;97862.66;;;21.00;71.89
50302;BME280;36550;50.472;19.744;2023-07-13T11:01:21;97882.09;;;20.50;72.19
50302;BME280;36550;50.472;19.744;2023-07-13T11:04:11;97895.77;;;20.35;71.78
50302;BME280;36550;50.472;19.744;2023-07-13T11:06:58;97904.02;;;20.15;71.27
50302;BME280;36550;50.472;19.744;2023-07-13T11:09:43;97909.41;;;19.92;70.99
50302;BME280;36550;50.472;19.744;2023-07-13T11:15:43;97919.60;;;19.43;71.37
50302;BME280;36550;50.472;19.744;2023-07-13T11:18:28;97913.17;;;19.08;71.82
50302;BME280;36550;50.472;19.744;2023-07-13T11:21:17;97919.00;;;18.79;72.50
50302;BME280;36550;50.472;19.744;2023-07-13T11:24:12;97925.80;;;18.57;72.82
50302;BME280;36550;50.472;19.744;2023-07-13T11:26:57;97929.57;;;18.39;73.58
50302;BME280;36550;50.472;19.744;2023-07-13T11:29:41;97933.42;;;18.16;74.77
50302;BME280;36550;50.472;19.744;2023-07-13T11:32:30;97940.37;;;18.02;75.58
50302;BME280;36550;50.472;19.744;2023-07-13T11:35:22;97940.83;;;17.89;76.03
50302;BME280;36550;50.472;19.744;2023-07-13T11:38:17;97942.13;;;17.79;76.32
50302;BME280;36550;50.472;19.744;2023-07-13T11:41:06;97948.75;;;17.77;76.43
50302;BME280;36550;50.472;19.744;2023-07-13T11:43:54;97948.48;;;17.77;76.82
50302;BME280;36550;50.472;19.744;2023-07-13T11:46:38;97945.68;;;17.75;77.03
50302;BME280;36550;50.472;19.744;2023-07-13T11:49:25;97943.45;;;17.75;77.12
50302;BME280;36550;50.472;19.744;2023-07-13T11:52:17;97944.72;;;17.80;77.44
50302;BME280;36550;50.472;19.744;2023-07-13T11:55:04;97945.96;;;17.79;77.26
50302;BME280;36550;50.472;19.744;2023-07-13T11:57:58;97947.58;;;17.77;77.17
50302;BME280;36550;50.472;19.744;2023-07-13T12:01:00;97948.36;;;17.71;77.44
50302;BME280;36550;50.472;19.744;2023-07-13T12:04:04;97953.85;;;17.66;77.51
50302;BME280;36550;50.472;19.744;2023-07-13T12:06:57;97950.10;;;17.59;77.68
50302;BME280;36550;50.472;19.744;2023-07-13T12:09:42;97950.92;;;17.61;78.12
50302;BME280;36550;50.472;19.744;2023-07-13T12:12:28;97947.53;;;17.65;78.22
50302;BME280;36550;50.472;19.744;2023-07-13T12:15:13;97944.58;;;17.68;78.49
50302;BME280;36550;50.472;19.744;2023-07-13T12:17:57;97942.77;;;17.69;78.36
50302;BME280;36550;50.472;19.744;2023-07-13T12:20:41;97943.31;;;17.73;78.37
50302;BME280;36550;50.472;19.744;2023-07-13T12:23:30;97948.52;;;17.74;78.38
50302;BME280;36550;50.472;19.744;2023-07-13T12:26:15;97948.45;;;17.79;78.61
50302;BME280;36550;50.472;19.744;2023-07-13T12:29:04;97945.18;;;17.88;79.06
50302;BME280;36550;50.472;19.744;2023-07-13T12:31:49;97938.52;;;17.99;79.52
50302;BME280;36550;50.472;19.744;2023-07-13T12:34:51;97929.14;;;18.11;79.66
50302;BME280;36550;50.472;19.744;2023-07-13T12:37:35;97935.82;;;18.21;79.74
50302;BME280;36550;50.472;19.744;2023-07-13T12:40:21;97936.14;;;18.29;79.60
50302;BME280;36550;50.472;19.744;2023-07-13T12:43:11;97930.26;;;18.36;79.58
50302;BME280;36550;50.472;19.744;2023-07-13T12:45:59;97926.66;;;18.42;79.43
50302;BME280;36550;50.472;19.744;2023-07-13T12:48:49;97924.08;;;18.47;79.34
50302;BME280;36550;50.472;19.744;2023-07-13T12:51:36;97910.48;;;18.51;79.25
50302;BME280;36550;50.472;19.744;2023-07-13T12:54:20;97897.97;;;18.56;79.27
50302;BME280;36550;50.472;19.744;2023-07-13T12:57:05;97896.84;;;18.60;79.24
50302;BME280;36550;50.472;19.744;2023-07-13T12:59:53;97897.09;;;18.64;79.32
50302;BME280;36550;50.472;19.744;2023-07-13T13:02:38;97897.55;;;18.70;79.45
50302;BME280;36550;50.472;19.744;2023-07-13T13:05:24;97895.16;;;18.76;79.42
50302;BME280;36550;50.472;19.744;2023-07-13T13:08:11;97886.71;;;18.79;79.47
50302;BME280;36550;50.472;19.744;2023-07-13T13:10:56;97887.63;;;18.87;79.48
50302;BME280;36550;50.472;19.744;2023-07-13T13:13:40;97890.41;;;18.95;79.65
50302;BME280;36550;50.472;19.744;2023-07-13T13:16:33;97896.71;;;19.03;79.62
50302;BME280;36550;50.472;19.744;2023-07-13T13:19:24;97906.79;;;19.08;79.56
50302;BME280;36550;50.472;19.744;2023-07-13T13:22:09;97903.00;;;19.15;79.70
50302;BME280;36550;50.472;19.744;2023-07-13T13:24:53;97901.85;;;19.23;79.83
50302;BME280;36550;50.472;19.744;2023-07-13T13:27:37;97903.30;;;19.29;79.47
50302;BME280;36550;50.472;19.744;2023-07-13T13:30:21;97901.83;;;19.33;79.63
50302;BME280;36550;50.472;19.744;2023-07-13T13:33:10;97904.50;;;19.38;79.66
50302;BME280;36550;50.472;19.744;2023-07-13T13:35:54;97915.18;;;19.42;79.63
50302;BME280;36550;50.472;19.744;2023-07-13T13:38:38;97921.92;;;19.46;79.69
50302;BME280;36550;50.472;19.744;2023-07-13T13:41:22;97928.27;;;19.52;79.75
50302;BME280;36550;50.472;19.744;2023-07-13T13:44:09;97933.27;;;19.55;79.62
50302;BME280;36550;50.472;19.744;2023-07-13T13:46:54;97944.64;;;19.56;79.37
50302;BME280;36550;50.472;19.744;2023-07-13T13:49:39;97950.13;;;19.56;79.37
50302;BME280;36550;50.472;19.744;2023-07-13T13:52:24;97953.48;;;19.56;79.00
50302;BME280;36550;50.472;19.744;2023-07-13T13:55:16;97968.73;;;19.55;79.18
50302;BME280;36550;50.472;19.744;2023-07-13T13:58:01;97986.67;;;19.55;79.34
50302;BME280;36550;50.472;19.744;2023-07-13T14:00:45;97991.00;;;19.51;79.31
50302;BME280;36550;50.472;19.744;2023-07-13T14:03:30;97985.24;;;19.57;79.85
50302;BME280;36550;50.472;19.744;2023-07-13T14:06:15;97993.81;;;19.73;80.04
50302;BME280;36550;50.472;19.744;2023-07-13T14:09:00;97994.33;;;19.84;80.07
50302;BME280;36550;50.472;19.744;2023-07-13T14:11:47;97995.84;;;19.90;80.02
50302;BME280;36550;50.472;19.744;2023-07-13T14:14:33;97999.41;;;19.88;79.63
50302;BME280;36550;50.472;19.744;2023-07-13T14:17:20;97998.11;;;19.89;79.58
50302;BME280;36550;50.472;19.744;2023-07-13T14:20:11;98000.17;;;19.98;79.95
50302;BME280;36550;50.472;19.744;2023-07-13T14:22:56;97999.57;;;20.08;79.74
50302;BME280;36550;50.472;19.744;2023-07-13T14:25:39;97987.94;;;20.16;79.64
50302;BME280;36550;50.472;19.744;2023-07-13T14:28:26;97989.90;;;20.25;79.68
50302;BME280;36550;50.472;19.744;2023-07-13T14:31:12;97988.23;;;20.25;79.35
50302;BME280;36550;50.472;19.744;2023-07-13T14:33:56;97991.20;;;20.21;79.08
50302;BME280;36550;50.472;19.744;2023-07-13T14:36:45;97996.18;;;20.17;79.06
50302;BME280;36550;50.472;19.744;2023-07-13T14:39:31;97995.11;;;20.14;79.12
50302;BME280;36550;50.472;19.744;2023-07-13T14:42:15;98002.50;;;20.13;79.11
50302;BME280;36550;50.472;19.744;2023-07-13T14:44:59;98004.18;;;20.13;79.35
50302;BME280;36550;50.472;19.744;2023-07-13T14:47:43;98002.85;;;20.14;79.28
50302;BME280;36550;50.472;19.744;2023-07-13T14:50:31;98005.16;;;20.13;79.46
50302;BME280;36550;50.472;19.744;2023-07-13T14:53:15;98009.19;;;20.11;79.37
50302;BME280;36550;50.472;19.744;2023-07-13T14:55:59;98006.67;;;20.06;79.22
50302;BME280;36550;50.472;19.744;2023-07-13T14:58:43;98005.89;;;19.94;78.95
50302;BME280;36550;50.472;19.744;2023-07-13T15:01:27;98011.71;;;19.76;79.27
50302;BME280;36550;50.472;19.744;2023-07-13T15:04:12;98011.48;;;19.57;79.41